Terminal Aerodrome Forecast
Issued by NWS Charleston, SC

Home | Current Version | Previous Version | Text Only | Print | Product List | Glossary On
Versions: 1 2 3 4 5 6 7 8 9 10 11 12 13 14 15 16 17 18 19 20 21 22 23 24 25 26 27
000
FTUS42 KCHS 172326
TAFCHS
TAF
KCHS 172326Z 1800/1824 36004KT P6SM VCSH SCT025 BKN100
      TEMPO 1800/1802 BKN020
     FM180300 00000KT P6SM SCT006 BKN040
     FM180900 00000KT P6SM SCT005 BKN015
     FM181400 13005KT P6SM SCT020 SCT060=

USA.gov is the U.S. government's official web portal to all federal, state and local government web resources and services.